Time;durP1;ratioP1;P1;durP2;ratioP2;P2;SDS_P1;SDS_P2;PMS_P1;PMS_P2;Temp;Humidity;BMP_temperature;BMP_pressure;BME280_temperature;BME280_humidity;BME280_pressure;Samples;Min_cycle;Max_cycle;Signal;HPM_P1;HPM_P2
2023/12/09 00:00:17;;;;;;;23.33;20.08;;;;;;;2.69;68.93;94593.16;4172686;28;20046;-69
2023/12/09 00:02:19;;;;;;;26.77;21.00;;;;;;;2.78;69.49;94606.25;4169982;28;20053;-69
2023/12/09 00:04:21;;;;;;;25.40;19.95;;;;;;;2.66;69.13;94600.19;4172830;28;20088;-69
2023/12/09 00:06:23;;;;;;;26.83;21.83;;;;;;;2.74;69.65;94604.81;4169227;28;20064;-68
2023/12/09 00:08:25;;;;;;;30.05;22.15;;;;;;;2.80;69.28;94606.97;4176272;28;20056;-69
2023/12/09 00:10:28;;;;;;;28.17;21.85;;;;;;;2.86;69.29;94603.06;4166366;28;20063;-68
2023/12/09 00:12:29;;;;;;;26.63;21.33;;;;;;;2.91;68.97;94600.16;4166713;28;20150;-68
2023/12/09 00:14:31;;;;;;;26.35;20.75;;;;;;;2.99;68.70;94602.97;4164480;28;20049;-69
2023/12/09 00:16:34;;;;;;;26.38;22.00;;;;;;;3.03;68.37;94602.66;4173835;28;20096;-69
2023/12/09 00:18:36;;;;;;;28.27;22.23;;;;;;;3.04;68.67;94601.69;4176772;28;20053;-69
2023/12/09 00:20:38;;;;;;;27.77;21.73;;;;;;;3.06;68.75;94594.66;4174169;28;20053;-67
2023/12/09 00:22:41;;;;;;;31.02;23.02;;;;;;;3.04;68.49;94593.13;4173422;28;20041;-68
2023/12/09 00:24:43;;;;;;;26.07;20.77;;;;;;;3.09;68.37;94596.16;4168294;28;20397;-70
2023/12/09 00:26:45;;;;;;;28.90;21.83;;;;;;;3.11;68.44;94590.88;4174300;28;20057;-66
2023/12/09 00:28:47;;;;;;;27.30;21.15;;;;;;;3.07;67.91;94585.09;4168885;28;20056;-68
2023/12/09 00:30:48;;;;;;;26.48;21.05;;;;;;;3.05;68.49;94582.66;4176538;28;20466;-68
2023/12/09 00:32:50;;;;;;;25.13;20.40;;;;;;;3.11;68.40;94585.72;4174853;28;20044;-67
2023/12/09 00:34:52;;;;;;;28.17;21.20;;;;;;;3.10;68.60;94584.91;4171854;28;20045;-68
2023/12/09 00:36:54;;;;;;;25.98;22.30;;;;;;;3.19;68.32;94585.97;4176313;28;20049;-68
2023/12/09 00:38:56;;;;;;;26.00;21.10;;;;;;;3.21;67.66;94590.06;4167378;28;20051;-68
2023/12/09 00:40:58;;;;;;;22.33;19.85;;;;;;;3.20;67.71;94585.81;4170923;28;20440;-68
2023/12/09 00:43:00;;;;;;;25.45;20.95;;;;;;;3.23;67.72;94588.19;4170876;28;20049;-69
2023/12/09 00:45:02;;;;;;;25.73;20.48;;;;;;;3.18;67.76;94595.47;4176156;28;20431;-66
2023/12/09 00:47:04;;;;;;;23.92;20.25;;;;;;;3.10;67.59;94586.63;4175867;28;20484;-68
2023/12/09 00:49:06;;;;;;;26.23;21.20;;;;;;;3.08;67.86;94597.94;4176659;28;20480;-68
2023/12/09 00:51:08;;;;;;;25.10;20.45;;;;;;;3.10;68.05;94590.06;4176251;28;20432;-68
2023/12/09 00:53:12;;;;;;;24.65;19.85;;;;;;;3.11;68.06;94590.88;4177410;28;20122;-68
2023/12/09 00:55:14;;;;;;;23.20;18.90;;;;;;;3.12;67.49;94587.34;4177307;28;20495;-68
2023/12/09 00:57:16;;;;;;;23.42;18.90;;;;;;;3.13;67.76;94587.22;4174492;28;20140;-68
2023/12/09 00:59:17;;;;;;;24.05;19.15;;;;;;;3.17;67.27;94591.25;4162969;28;20463;-68
2023/12/09 01:01:19;;;;;;;23.85;18.95;;;;;;;3.16;67.20;94592.19;4169656;28;20079;-67
2023/12/09 01:03:21;;;;;;;22.63;18.05;;;;;;;3.14;67.34;94595.81;4175266;28;20124;-69
2023/12/09 01:05:23;;;;;;;20.08;17.20;;;;;;;3.13;67.33;94595.00;4175661;28;20156;-70
2023/12/09 01:07:25;;;;;;;21.27;16.95;;;;;;;3.13;67.47;94592.41;4168508;28;20052;-67
2023/12/09 01:09:27;;;;;;;20.52;17.15;;;;;;;3.17;67.58;94596.41;4168213;28;20053;-68
2023/12/09 01:11:29;;;;;;;20.90;16.95;;;;;;;3.22;67.53;94601.25;4175526;28;20053;-69
2023/12/09 01:13:31;;;;;;;21.95;17.27;;;;;;;3.19;66.99;94602.31;4174761;28;20433;-70
2023/12/09 01:15:33;;;;;;;20.00;17.27;;;;;;;3.22;67.36;94596.88;4177337;28;20055;-69
2023/12/09 01:17:35;;;;;;;21.08;17.65;;;;;;;3.24;66.78;94605.34;4175836;28;20128;-68
2023/12/09 01:19:37;;;;;;;22.35;18.73;;;;;;;3.24;66.67;94602.75;4180891;28;20053;-69
2023/12/09 01:21:39;;;;;;;24.10;20.05;;;;;;;2.93;66.83;94599.09;4174131;28;20045;-68
2023/12/09 01:23:41;;;;;;;23.75;19.30;;;;;;;2.72;67.85;94616.22;4189176;28;20072;-69
2023/12/09 01:25:43;;;;;;;19.60;16.65;;;;;;;2.56;67.93;94617.34;4165300;28;20057;-67
2023/12/09 01:27:45;;;;;;;21.10;17.25;;;;;;;2.32;68.77;94609.59;4172225;28;20137;-70
2023/12/09 01:29:47;;;;;;;20.60;16.98;;;;;;;2.44;69.36;94615.66;4167999;28;20264;-67
2023/12/09 01:31:49;;;;;;;21.00;16.67;;;;;;;2.56;69.49;94616.50;4169272;28;20067;-70
2023/12/09 01:33:51;;;;;;;20.75;16.85;;;;;;;2.63;68.89;94603.03;4164598;28;20482;-68
2023/12/09 01:35:53;;;;;;;22.02;17.85;;;;;;;2.74;68.16;94607.41;4175432;28;20087;-69
2023/12/09 01:37:55;;;;;;;19.40;17.27;;;;;;;2.86;68.22;94603.91;4177439;28;20049;-68
2023/12/09 01:39:57;;;;;;;22.02;17.55;;;;;;;2.92;67.86;94600.03;4179043;28;20052;-68
2023/12/09 01:42:02;;;;;;;20.38;16.67;;;;;;;2.97;67.50;94594.50;4173259;28;20707;-68
2023/12/09 01:44:04;;;;;;;21.25;17.33;;;;;;;2.97;67.74;94604.84;4171486;28;20053;-68
2023/12/09 01:46:10;;;;;;;20.70;17.95;;;;;;;3.01;67.56;94590.75;4175350;28;20120;-68
2023/12/09 01:48:12;;;;;;;20.63;17.08;;;;;;;3.08;67.58;94594.53;4177179;28;20061;-69
2023/12/09 01:50:15;;;;;;;21.95;18.02;;;;;;;3.07;66.91;94601.44;4178590;28;20185;-68
2023/12/09 01:52:17;;;;;;;21.23;17.17;;;;;;;3.08;66.89;94585.00;4178705;28;20053;-69
2023/12/09 01:54:19;;;;;;;19.67;15.55;;;;;;;3.14;66.95;94588.91;4174141;28;20049;-69
2023/12/09 01:56:21;;;;;;;22.35;16.90;;;;;;;3.14;66.48;94586.31;4173430;28;20511;-69
2023/12/09 01:58:23;;;;;;;21.40;16.83;;;;;;;3.10;66.44;94584.03;4175662;28;20485;-70
2023/12/09 02:00:25;;;;;;;19.80;16.63;;;;;;;3.13;66.68;94587.22;4176133;28;20408;-68
2023/12/09 02:02:27;;;;;;;20.88;16.50;;;;;;;3.15;66.90;94580.19;4184350;28;20082;-68
2023/12/09 02:04:30;;;;;;;21.60;17.15;;;;;;;3.16;66.33;94584.44;4173848;28;20045;-69
2023/12/09 02:06:32;;;;;;;22.02;17.13;;;;;;;3.15;66.78;94577.59;4177779;28;20083;-68
2023/12/09 02:08:34;;;;;;;21.08;16.67;;;;;;;3.16;66.52;94574.06;4175482;28;20460;-67
2023/12/09 02:10:37;;;;;;;21.05;16.92;;;;;;;3.16;66.17;94579.25;4172452;28;20049;-69
2023/12/09 02:12:58;;;;;;;23.20;16.25;;;;;;;3.23;65.80;94577.84;4172778;28;20064;-67
2023/12/09 02:15:11;;;;;;;20.98;16.92;;;;;;;3.20;65.81;94580.63;4178214;28;20529;-66
2023/12/09 02:17:20;;;;;;;19.20;16.67;;;;;;;3.16;66.20;94586.16;4177165;28;20049;-68
2023/12/09 02:19:24;;;;;;;21.75;17.55;;;;;;;3.09;66.38;94583.22;4161004;28;20452;-69
2023/12/09 02:21:27;;;;;;;20.58;16.95;;;;;;;3.08;66.37;94582.41;4176893;28;20053;-69
2023/12/09 02:23:29;;;;;;;19.75;17.13;;;;;;;3.04;66.35;94580.19;4167421;28;20073;-68
2023/12/09 02:25:31;;;;;;;21.30;17.15;;;;;;;3.07;66.71;94580.75;4178328;28;20051;-68
2023/12/09 02:27:49;;;;;;;21.95;17.40;;;;;;;3.05;66.37;94579.22;4178282;28;20095;-67
2023/12/09 02:30:12;;;;;;;20.38;18.10;;;;;;;3.06;66.63;94575.72;4179407;28;20622;-68
2023/12/09 02:32:17;;;;;;;19.80;16.98;;;;;;;3.05;66.48;94574.03;4163666;28;20088;-67
2023/12/09 02:34:20;;;;;;;20.80;16.48;;;;;;;3.01;66.21;94577.81;4162232;28;20049;-67
2023/12/09 02:36:24;;;;;;;18.70;16.25;;;;;;;2.96;66.29;94572.97;4164703;28;20053;-68
2023/12/09 02:38:27;;;;;;;22.05;17.33;;;;;;;3.01;66.28;94570.03;4177648;28;20125;-68
2023/12/09 02:40:29;;;;;;;21.30;17.20;;;;;;;3.03;66.06;94571.59;4174415;28;20045;-69
2023/12/09 02:42:31;;;;;;;18.92;15.98;;;;;;;3.03;66.42;94571.59;4187422;28;20403;-69
2023/12/09 02:44:34;;;;;;;19.73;15.98;;;;;;;3.04;66.28;94573.22;4177102;28;20138;-69
2023/12/09 02:46:36;;;;;;;19.60;15.60;;;;;;;3.04;66.35;94567.25;4177190;28;20054;-70
2023/12/09 02:48:38;;;;;;;18.40;15.10;;;;;;;3.04;65.81;94565.47;4177525;28;20152;-69
2023/12/09 02:50:41;;;;;;;18.30;15.02;;;;;;;3.04;65.40;94565.47;4177199;28;20073;-68
2023/12/09 02:52:43;;;;;;;22.38;15.77;;;;;;;3.06;65.47;94562.78;4174044;28;20056;-69
2023/12/09 02:54:44;;;;;;;17.80;14.38;;;;;;;3.06;65.58;94568.75;4169020;28;20053;-68
2023/12/09 02:56:46;;;;;;;18.35;14.75;;;;;;;3.09;65.64;94567.69;4175241;28;20092;-67
2023/12/09 02:58:48;;;;;;;20.98;15.73;;;;;;;3.07;65.37;94565.22;4174679;28;20131;-69
2023/12/09 03:00:50;;;;;;;18.08;15.00;;;;;;;3.07;65.40;94567.00;4175322;28;20047;-70
2023/12/09 03:02:52;;;;;;;17.67;14.93;;;;;;;3.01;65.44;94564.88;4174529;28;20084;-69
2023/12/09 03:04:54;;;;;;;18.45;14.35;;;;;;;3.04;65.61;94567.25;4169107;28;20117;-70
2023/12/09 03:06:56;;;;;;;19.17;15.00;;;;;;;3.02;65.87;94562.16;4179105;28;20099;-70
2023/12/09 03:08:58;;;;;;;16.27;13.80;;;;;;;3.01;65.77;94562.28;4178913;28;20131;-68
2023/12/09 03:11:00;;;;;;;17.88;13.68;;;;;;;2.98;66.00;94559.94;4175517;28;20045;-68
2023/12/09 03:13:02;;;;;;;16.30;14.05;;;;;;;2.97;66.25;94563.44;4171640;28;20129;-70
2023/12/09 03:15:05;;;;;;;17.35;14.68;;;;;;;2.94;65.99;94558.50;4176811;28;20075;-68
2023/12/09 03:17:08;;;;;;;17.67;14.32;;;;;;;2.90;66.09;94564.84;4169338;28;20385;-67
2023/12/09 03:19:11;;;;;;;17.50;14.32;;;;;;;2.91;66.39;94566.53;4174633;28;20501;-68
2023/12/09 03:21:15;;;;;;;17.30;13.80;;;;;;;2.88;66.34;94575.31;4162588;28;20389;-67
2023/12/09 03:23:17;;;;;;;16.90;13.65;;;;;;;2.89;66.23;94578.75;4163614;28;20053;-68
2023/12/09 03:25:19;;;;;;;17.27;13.80;;;;;;;2.89;66.52;94576.97;4163593;28;20049;-69
2023/12/09 03:27:21;;;;;;;17.55;14.27;;;;;;;2.89;66.13;94573.56;4166608;28;20524;-70
2023/12/09 03:29:23;;;;;;;18.45;14.27;;;;;;;2.85;66.12;94573.78;4175999;28;20088;-69
2023/12/09 03:31:25;;;;;;;16.73;14.13;;;;;;;2.85;66.33;94571.19;4177422;28;20068;-69
2023/12/09 03:33:27;;;;;;;19.42;14.75;;;;;;;2.85;66.55;94576.38;4176337;28;20107;-70
2023/12/09 03:35:29;;;;;;;18.25;14.77;;;;;;;2.89;66.90;94576.16;4177742;28;20052;-68
2023/12/09 03:37:31;;;;;;;16.85;14.25;;;;;;;2.91;66.37;94574.28;4176818;28;20044;-68
2023/12/09 03:39:33;;;;;;;17.02;13.95;;;;;;;2.90;66.43;94576.03;4177718;28;20061;-69
2023/12/09 03:41:35;;;;;;;17.48;14.73;;;;;;;2.84;66.52;94573.94;4178003;28;20132;-69
2023/12/09 03:43:37;;;;;;;19.00;14.18;;;;;;;2.79;66.63;94569.06;4176214;28;20064;-69
2023/12/09 03:45:40;;;;;;;16.63;13.80;;;;;;;2.78;67.00;94575.19;4165687;28;20127;-69
2023/12/09 03:47:42;;;;;;;17.45;13.95;;;;;;;2.79;67.07;94571.66;4176362;28;20554;-68
2023/12/09 03:49:44;;;;;;;16.10;13.05;;;;;;;2.80;66.93;94583.66;4167437;28;20053;-68
2023/12/09 03:51:46;;;;;;;16.38;13.18;;;;;;;2.79;67.04;94576.00;4173083;28;20102;-67
2023/12/09 03:53:48;;;;;;;16.45;13.80;;;;;;;2.75;66.63;94572.81;4163023;28;20472;-69
2023/12/09 03:55:50;;;;;;;18.52;14.73;;;;;;;2.76;67.05;94577.06;4168767;28;20045;-69
2023/12/09 03:57:53;;;;;;;16.88;13.52;;;;;;;2.70;66.91;94576.72;4159157;28;20053;-69
2023/12/09 03:59:55;;;;;;;16.08;13.20;;;;;;;2.71;67.18;94588.69;4168353;28;20067;-68
2023/12/09 04:01:57;;;;;;;15.00;12.80;;;;;;;2.75;66.52;94582.34;4178165;28;20052;-68
2023/12/09 04:04:01;;;;;;;17.48;13.20;;;;;;;2.73;66.83;94579.91;4157624;28;20112;-69
2023/12/09 04:06:05;;;;;;;16.58;13.57;;;;;;;2.72;66.84;94586.00;4164457;28;20049;-70
2023/12/09 04:08:08;;;;;;;15.80;13.02;;;;;;;2.74;67.01;94585.91;4176919;28;20424;-69
2023/12/09 04:10:09;;;;;;;15.20;13.50;;;;;;;2.70;66.98;94587.88;4165916;28;20060;-69
2023/12/09 04:12:11;;;;;;;16.92;13.32;;;;;;;2.67;66.75;94591.53;4174765;28;20404;-69
2023/12/09 04:14:13;;;;;;;16.45;13.10;;;;;;;2.66;66.78;94589.84;4162089;28;20057;-70
2023/12/09 04:16:15;;;;;;;17.52;13.63;;;;;;;2.60;66.64;94587.75;4176330;28;20049;-69
2023/12/09 04:18:17;;;;;;;18.02;14.43;;;;;;;2.62;66.71;94601.41;4160124;28;20136;-68
2023/12/09 04:20:20;;;;;;;15.10;13.15;;;;;;;2.60;67.29;94598.09;4163506;28;20480;-68
2023/12/09 04:22:22;;;;;;;16.92;13.43;;;;;;;2.64;66.59;94599.50;4176232;28;20057;-68
2023/12/09 04:24:24;;;;;;;17.30;13.48;;;;;;;2.62;66.93;94601.41;4170036;28;20107;-69
2023/12/09 04:26:26;;;;;;;17.00;13.02;;;;;;;2.63;66.96;94602.22;4161181;28;20050;-69
2023/12/09 04:28:28;;;;;;;17.45;12.93;;;;;;;2.67;66.99;94593.28;4171219;28;20052;-68
2023/12/09 04:30:30;;;;;;;16.25;13.80;;;;;;;2.67;66.89;94603.63;4164349;28;20060;-69
2023/12/09 04:32:32;;;;;;;17.05;13.70;;;;;;;2.65;67.00;94600.34;4176180;28;20061;-69
2023/12/09 04:34:35;;;;;;;19.33;13.13;;;;;;;2.67;66.96;94604.44;4167950;28;20057;-69
2023/12/09 04:36:37;;;;;;;15.70;13.55;;;;;;;2.64;67.07;94596.91;4165370;28;20136;-68
2023/12/09 04:38:39;;;;;;;15.45;13.60;;;;;;;2.70;67.22;94597.41;4177018;28;20041;-69
2023/12/09 04:40:42;;;;;;;16.38;12.43;;;;;;;2.69;67.18;94599.19;4176709;28;20301;-68
2023/12/09 04:42:44;;;;;;;15.30;12.30;;;;;;;2.71;67.15;94599.88;4175335;28;20055;-69
2023/12/09 04:44:46;;;;;;;14.48;12.27;;;;;;;2.72;67.29;94604.09;4175877;28;20128;-68
2023/12/09 04:46:48;;;;;;;14.77;11.95;;;;;;;2.70;66.86;94605.16;4176034;28;20045;-69
2023/12/09 04:48:49;;;;;;;16.30;12.93;;;;;;;2.74;66.97;94610.00;4176926;28;20443;-69
2023/12/09 04:50:52;;;;;;;16.50;12.00;;;;;;;2.75;66.84;94603.06;4180748;28;20094;-69
2023/12/09 04:52:54;;;;;;;13.50;11.13;;;;;;;2.77;66.56;94604.56;4179751;28;20053;-68
2023/12/09 04:54:56;;;;;;;13.65;11.40;;;;;;;2.76;66.60;94602.94;4180277;28;20480;-69
2023/12/09 04:56:58;;;;;;;16.17;12.18;;;;;;;2.51;67.30;94611.69;4166435;28;20107;-69
2023/12/09 04:59:00;;;;;;;16.23;13.02;;;;;;;2.38;68.32;94619.50;4174103;28;20114;-69
2023/12/09 05:01:02;;;;;;;15.65;12.90;;;;;;;2.29;68.20;94624.53;4178930;28;20503;-69
2023/12/09 05:03:04;;;;;;;15.90;12.70;;;;;;;2.37;68.85;94622.22;4180804;28;20056;-69
2023/12/09 05:05:06;;;;;;;14.68;11.43;;;;;;;2.44;68.05;94616.47;4194079;28;20128;-70
2023/12/09 05:07:08;;;;;;;15.05;11.55;;;;;;;2.52;67.69;94621.09;4166043;28;20100;-69
2023/12/09 05:09:11;;;;;;;16.20;12.35;;;;;;;2.53;67.54;94624.50;4192462;28;20056;-70
2023/12/09 05:11:13;;;;;;;15.23;12.30;;;;;;;2.61;67.44;94625.59;4172525;28;20048;-71
2023/12/09 05:13:14;;;;;;;16.85;12.15;;;;;;;2.65;67.59;94621.03;4179652;28;20053;-68
2023/12/09 05:15:17;;;;;;;15.85;12.32;;;;;;;2.72;67.25;94623.97;4175488;28;20053;-69
2023/12/09 05:17:19;;;;;;;14.90;11.65;;;;;;;2.70;67.19;94626.69;4170848;28;20057;-69
2023/12/09 05:19:21;;;;;;;14.50;11.93;;;;;;;2.73;67.25;94626.47;4179950;28;20055;-68
2023/12/09 05:21:23;;;;;;;14.38;11.80;;;;;;;2.76;66.97;94631.41;4179925;28;20048;-69
2023/12/09 05:23:36;;;;;;;14.00;12.38;;;;;;;2.75;66.77;94637.50;4175090;28;20049;-68
2023/12/09 05:25:38;;;;;;;15.18;13.02;;;;;;;2.80;67.14;94640.59;4178316;28;20472;-69
2023/12/09 05:27:40;;;;;;;16.55;13.57;;;;;;;2.83;66.92;94634.34;4173281;28;20080;-69
2023/12/09 05:29:43;;;;;;;14.48;11.70;;;;;;;2.84;66.48;94644.59;4177191;28;20063;-70
2023/12/09 05:31:45;;;;;;;13.85;11.57;;;;;;;2.87;66.37;94646.94;4165734;28;20060;-69
2023/12/09 05:33:47;;;;;;;16.15;12.65;;;;;;;2.85;66.21;94648.81;4174470;28;20099;-67
2023/12/09 05:35:49;;;;;;;15.18;12.68;;;;;;;2.88;66.18;94647.75;4175141;28;20053;-69
2023/12/09 05:37:51;;;;;;;15.15;12.15;;;;;;;2.94;66.35;94659.44;4177350;28;20357;-69
2023/12/09 05:39:53;;;;;;;13.52;11.13;;;;;;;2.91;65.72;94651.91;4178004;28;20084;-69
2023/12/09 05:41:55;;;;;;;15.30;12.57;;;;;;;2.94;65.40;94651.66;4167172;28;20065;-69
2023/12/09 05:43:57;;;;;;;14.27;11.20;;;;;;;2.92;65.38;94648.38;4170249;28;20203;-69
2023/12/09 05:45:58;;;;;;;15.35;11.63;;;;;;;2.97;65.34;94661.78;4176240;28;20127;-71
2023/12/09 05:48:04;;;;;;;16.75;12.20;;;;;;;2.99;65.40;94654.72;4172454;28;20053;-70
2023/12/09 05:50:07;;;;;;;15.13;12.73;;;;;;;3.00;65.17;94652.03;4178474;28;20095;-70
2023/12/09 05:52:09;;;;;;;13.77;11.57;;;;;;;3.08;65.46;94657.47;4180313;28;20051;-68
2023/12/09 05:54:10;;;;;;;13.60;11.40;;;;;;;3.09;65.32;94660.88;4184431;28;20052;-70
2023/12/09 05:56:13;;;;;;;13.00;11.27;;;;;;;3.13;64.76;94662.31;4162046;28;20049;-69
2023/12/09 05:58:15;;;;;;;14.45;12.13;;;;;;;3.13;64.82;94666.66;4168511;28;20554;-69
2023/12/09 06:00:17;;;;;;;15.57;12.48;;;;;;;2.87;65.08;94659.88;4175246;28;20067;-67
2023/12/09 06:02:19;;;;;;;20.02;16.25;;;;;;;2.19;67.13;94670.88;4168929;28;20091;-70
2023/12/09 06:04:20;;;;;;;20.85;17.05;;;;;;;2.07;67.96;94671.75;4177776;28;20178;-70
2023/12/09 06:06:22;;;;;;;15.43;12.52;;;;;;;1.55;69.50;94660.69;4172343;28;20124;-70
2023/12/09 06:08:25;;;;;;;17.48;13.38;;;;;;;1.64;69.14;94671.22;4173580;28;20489;-72
2023/12/09 06:10:26;;;;;;;18.08;14.43;;;;;;;1.48;70.03;94668.03;4176235;28;20096;-69
2023/12/09 06:12:28;;;;;;;16.80;14.13;;;;;;;1.54;70.22;94674.53;4176469;28;20079;-68
2023/12/09 06:14:31;;;;;;;17.40;14.93;;;;;;;1.71;70.11;94681.94;4170865;28;20522;-71
2023/12/09 06:16:33;;;;;;;18.52;14.73;;;;;;;1.91;69.82;94675.41;4179673;28;20045;-69
2023/12/09 06:18:35;;;;;;;18.17;15.38;;;;;;;2.04;68.47;94678.78;4177840;28;20420;-71
2023/12/09 06:20:37;;;;;;;18.52;15.63;;;;;;;2.08;68.75;94678.56;4178155;28;21088;-70
2023/12/09 06:22:39;;;;;;;18.55;15.50;;;;;;;2.21;68.69;94679.34;4177454;28;20128;-70
2023/12/09 06:24:44;;;;;;;19.83;16.63;;;;;;;2.28;68.14;94679.72;4177776;28;20057;-70
2023/12/09 06:26:46;;;;;;;20.20;16.25;;;;;;;2.40;68.10;94673.69;4175941;28;20053;-71
2023/12/09 06:28:48;;;;;;;22.90;17.38;;;;;;;2.44;67.43;94664.78;4179502;28;20101;-69
2023/12/09 06:30:49;;;;;;;21.80;16.45;;;;;;;2.61;67.30;94676.50;4178980;28;20052;-72
2023/12/09 06:32:53;;;;;;;18.38;15.57;;;;;;;2.71;66.82;94679.22;4176436;28;20056;-70
2023/12/09 06:34:55;;;;;;;19.13;17.00;;;;;;;2.79;66.17;94669.97;4176787;28;20061;-70
2023/12/09 06:36:57;;;;;;;18.95;15.80;;;;;;;2.85;66.00;94679.88;4164760;28;20045;-70
2023/12/09 06:38:59;;;;;;;19.77;15.38;;;;;;;2.91;66.01;94680.38;4170926;28;20052;-70
2023/12/09 06:41:04;;;;;;;22.90;16.42;;;;;;;2.99;65.47;94678.03;4180025;28;20052;-69
2023/12/09 06:43:06;;;;;;;18.80;15.23;;;;;;;3.04;65.73;94673.34;4175603;28;20140;-69
2023/12/09 06:45:08;;;;;;;20.70;16.10;;;;;;;2.98;65.57;94674.63;4173270;28;20403;-71
2023/12/09 06:47:10;;;;;;;21.23;16.52;;;;;;;3.04;65.74;94683.69;4173975;28;20662;-69
2023/12/09 06:49:12;;;;;;;22.00;16.85;;;;;;;3.10;65.29;94683.25;4178011;28;20052;-69
2023/12/09 06:51:15;;;;;;;21.05;15.68;;;;;;;3.18;65.26;94688.66;4170876;28;20053;-70
2023/12/09 06:53:17;;;;;;;25.08;15.85;;;;;;;3.19;65.07;94679.16;4169170;28;20556;-70
2023/12/09 06:55:19;;;;;;;19.55;15.32;;;;;;;3.24;65.27;94683.03;4178588;28;20049;-71
2023/12/09 06:57:21;;;;;;;19.98;15.13;;;;;;;3.20;64.83;94688.56;4177938;28;20481;-69
2023/12/09 06:59:23;;;;;;;17.98;14.52;;;;;;;3.16;65.09;94693.16;4177638;28;20151;-70
2023/12/09 07:01:28;;;;;;;18.27;14.82;;;;;;;3.11;65.01;94691.84;4178209;28;20141;-69
2023/12/09 07:03:30;;;;;;;19.10;15.27;;;;;;;2.97;64.91;94691.09;4177971;28;20057;-71
2023/12/09 07:05:32;;;;;;;18.17;13.82;;;;;;;3.03;65.62;94700.16;4175490;28;20061;-71
2023/12/09 07:07:34;;;;;;;17.13;13.63;;;;;;;3.08;65.52;94704.06;4177373;28;20132;-70
2023/12/09 07:09:36;;;;;;;19.85;14.68;;;;;;;3.16;65.06;94692.31;4178141;28;20131;-69
2023/12/09 07:11:38;;;;;;;21.73;14.35;;;;;;;3.23;65.05;94701.28;4167134;28;20081;-68
2023/12/09 07:13:40;;;;;;;17.80;13.25;;;;;;;3.24;64.46;94700.31;4174927;28;20056;-71
2023/12/09 07:15:42;;;;;;;17.45;12.68;;;;;;;3.24;64.44;94705.50;4173381;28;20048;-70
2023/12/09 07:17:48;;;;;;;14.55;10.73;;;;;;;3.22;64.16;94702.22;4172603;28;20080;-69
2023/12/09 07:19:52;;;;;;;;;;;;;;;3.35;63.67;94704.72;4163970;28;20049;-69
2023/12/09 07:21:54;;;;;;;13.48;10.07;;;;;;;3.40;63.67;94705.16;4165649;28;19921;-70
2023/12/09 07:23:56;;;;;;;16.02;12.20;;;;;;;3.13;63.38;94701.13;4178426;28;20045;-70
2023/12/09 07:25:59;;;;;;;17.98;12.50;;;;;;;2.86;64.27;94706.56;4178951;28;20325;-69
2023/12/09 07:28:01;;;;;;;16.63;12.35;;;;;;;2.72;64.60;94706.75;4175695;28;20472;-70
2023/12/09 07:30:05;;;;;;;13.02;10.40;;;;;;;2.78;65.25;94709.72;4167337;28;20049;-70
2023/12/09 07:32:07;;;;;;;;;;;;;;;2.80;65.02;94710.44;4179246;28;20056;-69
2023/12/09 07:34:15;;;;;;;16.58;12.82;;;;;;;2.93;64.99;94717.31;4170940;28;19963;-70
2023/12/09 07:36:17;;;;;;;15.20;10.65;;;;;;;2.56;64.39;94718.22;4174349;28;20052;-71
2023/12/09 07:38:19;;;;;;;12.45;10.80;;;;;;;2.35;65.51;94717.97;4175964;28;20046;-70
2023/12/09 07:40:21;;;;;;;14.95;11.40;;;;;;;2.36;65.62;94722.19;4178438;28;20053;-71
2023/12/09 07:42:23;;;;;;;13.57;11.00;;;;;;;2.42;65.60;94729.53;4176744;28;20476;-69
2023/12/09 07:44:26;;;;;;;12.27;9.85;;;;;;;2.50;65.74;94726.41;4177831;28;20105;-71
2023/12/09 07:46:27;;;;;;;10.70;9.02;;;;;;;2.65;65.65;94719.31;4177164;28;20128;-70
2023/12/09 07:48:29;;;;;;;13.98;11.45;;;;;;;2.79;65.01;94724.28;4164746;28;20412;-71
2023/12/09 07:50:32;;;;;;;15.75;12.13;;;;;;;2.90;65.02;94733.03;4177385;28;20100;-69
2023/12/09 07:52:35;;;;;;;13.98;11.73;;;;;;;2.50;65.01;94729.00;4171436;28;20133;-69
2023/12/09 07:54:37;;;;;;;15.38;11.80;;;;;;;2.35;65.50;94728.31;4162740;28;20173;-70
2023/12/09 07:56:39;;;;;;;15.52;12.25;;;;;;;2.27;66.38;94722.84;4175051;28;20080;-69
2023/12/09 07:58:41;;;;;;;17.40;14.27;;;;;;;1.99;67.26;94732.53;4162150;28;20045;-70
2023/12/09 08:00:43;;;;;;;17.90;14.77;;;;;;;2.07;67.43;94728.63;4174706;28;20049;-70
2023/12/09 08:02:45;;;;;;;17.08;13.73;;;;;;;2.31;67.27;94732.06;4176561;28;20049;-70
2023/12/09 08:04:47;;;;;;;18.80;14.70;;;;;;;2.59;66.75;94732.69;4176153;28;20140;-71
2023/12/09 08:06:49;;;;;;;18.02;14.90;;;;;;;2.78;65.45;94740.78;4178720;28;20435;-70
2023/12/09 08:08:51;;;;;;;17.65;14.25;;;;;;;2.93;65.15;94749.19;4176172;28;20077;-70
2023/12/09 08:10:53;;;;;;;19.45;14.93;;;;;;;3.08;64.86;94737.72;4177414;28;20132;-71
2023/12/09 08:12:54;;;;;;;19.02;14.38;;;;;;;3.22;66.07;94747.03;4170296;28;20128;-71
2023/12/09 08:14:57;;;;;;;17.75;13.55;;;;;;;3.39;65.64;94750.16;4163676;28;20187;-70
2023/12/09 08:16:59;;;;;;;17.98;13.90;;;;;;;3.47;63.60;94743.47;4175852;28;20044;-69
2023/12/09 08:19:01;;;;;;;18.55;14.07;;;;;;;3.57;63.37;94740.16;4162476;28;20057;-70
2023/12/09 08:21:03;;;;;;;19.65;15.23;;;;;;;3.42;62.78;94743.00;4169894;28;20052;-69
2023/12/09 08:23:05;;;;;;;18.05;15.27;;;;;;;3.08;64.30;94747.25;4171530;28;20041;-70
2023/12/09 08:25:09;;;;;;;33.03;19.80;;;;;;;3.02;64.87;94747.69;4166155;28;20394;-69
2023/12/09 08:27:11;;;;;;;38.35;19.90;;;;;;;3.04;64.99;94735.47;4161986;28;20711;-70
2023/12/09 08:29:14;;;;;;;25.80;18.48;;;;;;;2.76;64.96;94742.63;4168949;28;20084;-71
2023/12/09 08:31:16;;;;;;;31.17;20.23;;;;;;;2.57;65.79;94743.13;4168691;28;20057;-69
2023/12/09 08:33:18;;;;;;;30.60;19.95;;;;;;;2.66;65.97;94742.47;4173414;28;20235;-69
2023/12/09 08:35:20;;;;;;;24.98;18.70;;;;;;;2.91;66.03;94742.47;4178391;28;20534;-70
2023/12/09 08:37:25;;;;;;;23.38;15.23;;;;;;;3.13;64.78;94736.53;4170561;28;20128;-70
2023/12/09 08:39:27;;;;;;;17.75;14.88;;;;;;;3.36;64.08;94740.03;4174546;28;20440;-69
2023/12/09 08:41:29;;;;;;;24.52;15.52;;;;;;;2.92;63.92;94746.69;4174586;28;20150;-69
2023/12/09 08:43:31;;;;;;;17.48;12.57;;;;;;;2.77;63.95;94743.47;4177834;28;20056;-70
2023/12/09 08:45:34;;;;;;;12.60;9.93;;;;;;;2.53;64.97;94746.84;4176529;28;20133;-72
2023/12/09 08:47:36;;;;;;;36.67;20.17;;;;;;;2.49;65.34;94745.44;4177591;28;20044;-69
2023/12/09 08:49:40;;;;;;;28.75;17.63;;;;;;;2.76;65.52;94750.41;4177977;28;20131;-69
2023/12/09 08:51:44;;;;;;;14.50;10.65;;;;;;;3.01;64.93;94743.44;4164211;28;20386;-70
2023/12/09 08:53:46;;;;;;;12.40;9.93;;;;;;;3.12;63.98;94738.31;4165976;28;20073;-69
2023/12/09 08:55:48;;;;;;;14.45;9.73;;;;;;;3.30;63.29;94740.47;4170676;28;20473;-70
2023/12/09 08:57:51;;;;;;;15.68;11.43;;;;;;;3.27;63.28;94744.13;4187706;28;20132;-70
2023/12/09 08:59:54;;;;;;;10.65;8.18;;;;;;;3.31;63.21;94740.34;4165438;28;20044;-71
2023/12/09 09:01:56;;;;;;;11.32;8.70;;;;;;;3.45;63.26;94737.56;4169874;28;20073;-70
2023/12/09 09:03:58;;;;;;;16.67;11.30;;;;;;;3.43;62.95;94741.22;4170093;28;20408;-71
2023/12/09 09:06:00;;;;;;;10.25;8.50;;;;;;;3.17;62.77;94736.22;4169125;28;20095;-71
2023/12/09 09:08:02;;;;;;;14.77;10.52;;;;;;;3.28;63.74;94738.81;4177567;28;20049;-71
2023/12/09 09:10:05;;;;;;;15.90;12.40;;;;;;;3.41;63.12;94727.56;4178214;28;20045;-70
2023/12/09 09:12:07;;;;;;;19.52;14.75;;;;;;;3.63;63.08;94739.72;4175913;28;20504;-70
2023/12/09 09:14:09;;;;;;;19.52;15.02;;;;;;;3.77;62.37;94736.09;4177136;28;20128;-69
2023/12/09 09:16:11;;;;;;;20.17;14.80;;;;;;;3.92;62.31;94727.13;4172729;28;20053;-72
2023/12/09 09:18:13;;;;;;;17.30;13.93;;;;;;;3.77;61.68;94739.50;4163810;28;20041;-70
2023/12/09 09:20:15;;;;;;;17.50;13.50;;;;;;;2.73;64.17;94736.84;4163712;28;20125;-70
2023/12/09 09:22:17;;;;;;;15.98;13.25;;;;;;;2.49;65.67;94735.09;4158641;28;20583;-70
2023/12/09 09:24:19;;;;;;;16.52;12.23;;;;;;;2.23;65.92;94724.81;4178556;28;20127;-71
2023/12/09 09:26:21;;;;;;;18.77;13.30;;;;;;;2.55;66.55;94728.66;4170111;28;20054;-71
2023/12/09 09:28:24;;;;;;;14.90;11.55;;;;;;;2.87;65.70;94719.41;4173341;28;20053;-71
2023/12/09 09:30:25;;;;;;;16.77;12.02;;;;;;;3.13;64.86;94713.25;4167466;28;20083;-70